Latest Weather Observations for Bendigo

IDV60801

Issued at 2:05 pm EST Thursday 24 July 2014 (issued every 30 minutes, with the page automatically refreshed every 10 minutes)

About weather observations | Map of weather stations | Latest weather observations for VIC | Other Formats
Station Details ID: 081123 Name: BENDIGO AIRPORT Lat: -36.74 Lon: 144.33 Height: 208.0 m
Data from the previous 72 hours. | See also: Recent months at Bendigo
Date/Time
EST
Temp
°C
App
Temp
°C
Dew
Point
Rel
Hum
%
Delta-T
°C
Wind Press
QNH
hPa
Press
MSL
hPa
Rain
since 9 am
mm
Dir
 
Spd
km/h
Gust
km/h
Spd
kts
Gust
kts
24/02:00pm 10.6 6.7 8.5 87 1.0 E 19 30 10 16 1012.6 - 0.6
24/01:30pm 9.9 7.0 8.0 88 0.9 E 13 19 7 10 1012.9 - 0.6
24/01:00pm 9.9 7.7 8.0 88 0.9 E 9 19 5 10 1013.4 - 0.4
24/12:37pm 9.7 6.3 7.6 87 1.0 E 15 20 8 11 1013.7 - 0.4
24/12:30pm 9.7 6.7 7.8 88 0.9 E 13 17 7 9 1013.9 - 0.4
24/12:24pm 9.5 6.5 7.8 89 0.8 E 13 24 7 13 1014.1 - 0.4
24/12:00pm 9.4 5.7 7.8 90 0.8 E 17 24 9 13 1014.5 1014.9 0.4
24/11:42am 9.3 5.9 7.7 90 0.8 ENE 15 22 8 12 1015.0 - 0.4
24/11:30am 9.5 6.6 8.1 91 0.7 ENE 13 19 7 10 1015.1 - 0.4
24/11:00am 9.0 6.0 7.8 92 0.6 E 13 20 7 11 1015.3 - 0.4
24/10:34am 8.3 5.2 7.4 94 0.4 E 13 20 7 11 1015.7 - 0.4
24/10:30am 8.3 5.3 7.5 95 0.4 E 13 20 7 11 1015.7 - 0.4
24/10:00am 7.8 5.1 7.5 98 0.1 E 11 20 6 11 1016.0 - 0.4
24/09:30am 7.5 4.0 7.4 99 0.0 E 15 24 8 13 1015.9 - 0.4
24/09:00am 7.3 4.6 7.2 99 0.0 E 11 17 6 9 1016.1 1016.6 3.2
24/08:30am 7.2 4.8 7.1 99 0.0 E 9 15 5 8 1016.0 - 2.4
24/08:00am 7.2 4.4 6.9 98 0.1 ENE 11 17 6 9 1016.1 - 2.0
24/07:30am 7.2 5.3 6.9 98 0.1 E 6 9 3 5 1016.0 - 1.2
24/07:00am 7.2 5.2 6.9 98 0.1 E 7 13 4 7 1015.9 - 1.0
24/06:52am 7.2 5.2 6.9 98 0.1 E 7 13 4 7 1015.8 - 1.0
24/06:30am 7.2 5.2 6.9 98 0.1 SE 7 11 4 6 1015.7 - 0.8
24/06:00am 7.4 6.3 6.8 96 0.3 E 2 6 1 3 1015.8 1016.3 0.6
24/05:30am 7.3 5.8 6.7 96 0.3 ESE 4 9 2 5 1016.0 - 0.0
24/05:00am 7.4 5.3 6.7 95 0.3 ESE 7 13 4 7 1016.0 - 0.0
24/04:30am 7.5 6.0 6.8 95 0.3 E 4 13 2 7 1016.1 - 0.0
24/04:00am 7.3 4.5 7.0 98 0.1 ESE 11 20 6 11 1016.0 - 0.0
24/03:30am 6.7 4.6 6.6 99 0.0 SE 7 11 4 6 1016.2 - 0.0
24/03:12am 6.4 4.4 6.3 99 0.0 SE 6 11 3 6 1016.3 - 0.0
24/03:00am 6.3 4.1 6.2 99 0.0 SSE 7 9 4 5 1016.5 1017.0 0.0
24/02:30am 6.0 3.9 5.9 99 0.0 SE 6 7 3 4 1016.9 - 0.0
24/02:00am 5.6 3.3 5.5 99 0.0 SSE 7 9 4 5 1017.3 - 0.0
24/01:34am 5.7 3.6 5.6 99 0.0 SE 6 9 3 5 1017.3 - 0.0
24/01:32am 5.7 3.6 5.6 99 0.0 SE 6 9 3 5 1017.4 - 0.0
24/01:30am 5.4 3.0 5.3 99 0.0 SE 7 9 4 5 1017.4 - 0.0
24/01:00am 5.3 2.9 5.2 99 0.0 SE 7 11 4 6 1017.5 - 0.0
24/12:30am 5.1 2.6 5.0 99 0.0 SSE 7 9 4 5 1017.6 - 0.0
24/12:01am 5.1 2.6 5.0 99 0.0 SSE 7 9 4 5 1017.7 - 0.0
24/12:00am 5.1 2.6 5.0 99 0.0 SSE 7 9 4 5 1017.7 1018.1 0.0
 
Date/Time
EST
Temp
°C
App
Temp
°C
Dew
Point
Rel
Hum
%
Delta-T
°C
Wind Press
QNH
hPa
Press
MSL
hPa
Rain
since 9 am
mm
Dir
 
Spd
km/h
Gust
km/h
Spd
kts
Gust
kts
23/11:41pm 4.5 2.1 4.4 99 0.0 SE 6 9 3 5 1017.9 - 0.0
23/11:30pm 4.6 2.1 4.5 99 0.0 SE 7 11 4 6 1018.0 - 0.0
23/11:13pm 4.1 1.5 4.0 99 0.0 SE 7 11 4 6 1018.2 - 0.0
23/11:00pm 5.1 2.6 5.0 99 0.0 SE 7 11 4 6 1018.5 - 0.0
23/10:52pm 4.4 1.8 4.3 99 0.0 SE 7 9 4 5 1018.5 - 0.0
23/10:30pm 3.6 0.9 3.5 99 0.0 SE 7 9 4 5 1018.7 - 0.0
23/10:29pm 3.6 1.1 3.5 99 0.0 SE 6 7 3 4 1018.7 - 0.0
23/10:00pm 3.6 1.1 3.5 99 0.0 SE 6 7 3 4 1019.0 - 0.0
23/09:30pm 4.1 1.6 4.0 99 0.0 SE 6 7 3 4 1019.3 - 0.0
23/09:00pm 3.5 0.9 3.2 98 0.1 SE 6 7 3 4 1019.5 1020.0 0.0
23/08:30pm 4.3 3.0 3.9 97 0.2 CALM 0 0 0 0 1019.6 - 0.0
23/08:00pm 4.5 3.2 3.9 96 0.3 CALM 0 0 0 0 1019.8 - 0.0
23/07:30pm 5.4 4.2 4.7 95 0.3 CALM 0 0 0 0 1019.8 - 0.0
23/07:00pm 6.3 5.2 5.3 93 0.4 CALM 0 6 0 3 1019.7 - 0.0
23/06:30pm 4.9 3.2 4.2 95 0.3 SE 2 7 1 4 1019.7 - 0.0
23/06:00pm 5.0 3.5 3.2 88 0.7 CALM 0 0 0 0 1019.7 1020.2 0.0
23/05:30pm 7.5 5.0 5.0 84 1.1 ENE 7 11 4 6 1019.5 - 0.0
23/05:00pm 9.1 6.7 5.1 76 1.8 N 7 11 4 6 1019.8 - 0.0
23/04:30pm 10.2 7.8 5.2 71 2.3 NNE 7 9 4 5 1019.5 - 0.0
23/04:00pm 10.4 8.2 5.4 71 2.3 NE 6 11 3 6 1019.4 - 0.0
23/03:30pm 10.7 7.4 4.8 67 2.7 NNE 11 19 6 10 1019.8 - 0.0
23/03:00pm 10.5 6.9 5.1 69 2.5 NNE 13 19 7 10 1019.7 1020.2 0.0
23/02:30pm 10.1 6.5 4.9 70 2.4 NNE 13 19 7 10 1019.8 - 0.0
23/02:00pm 9.9 6.5 5.7 75 1.9 NE 13 19 7 10 1020.2 - 0.0
23/01:30pm 9.2 5.7 5.6 78 1.7 NNE 13 17 7 9 1020.7 - 0.0
23/01:00pm 8.8 6.7 5.7 81 1.4 E 6 11 3 6 1021.2 - 0.0
23/12:30pm 8.2 6.0 5.3 82 1.3 E 6 9 3 5 1021.7 - 0.0
23/12:00pm 7.8 5.4 5.3 84 1.1 ESE 7 11 4 6 1022.3 1022.7 0.0
23/11:30am 7.3 4.9 5.3 87 0.9 E 7 11 4 6 1023.0 - 0.0
23/11:00am 6.9 4.5 5.1 88 0.8 E 7 11 4 6 1023.4 - 0.0
23/10:30am 5.6 4.5 4.9 95 0.3 CALM 0 6 0 3 1023.9 - 0.0
23/10:00am 5.1 2.7 4.5 96 0.3 ESE 6 9 3 5 1024.1 - 0.0
23/09:30am 4.3 1.9 4.2 99 0.0 SSE 6 9 3 5 1023.9 - 0.0
23/09:12am 3.8 1.1 3.7 99 0.0 SSE 7 9 4 5 1023.8 - 0.0
23/09:00am 3.3 0.1 3.2 99 0.0 SE 9 13 5 7 1023.7 1024.2 0.2
23/08:30am 0.2 -1.8 0.1 99 0.0 CALM 0 7 0 4 1023.8 - 0.0
23/08:05am -1.0 -3.1 -1.1 99 0.0 CALM 0 0 0 0 1023.9 - 0.0
23/08:01am -1.2 -3.4 -1.3 99 0.0 CALM 0 0 0 0 1023.9 - 0.0
23/08:00am -1.2 -3.4 -1.3 99 0.0 CALM 0 0 0 0 1023.9 - 0.0
23/07:30am -1.5 -3.7 -1.6 99 0.0 CALM 0 0 0 0 1023.9 - 0.0
23/07:08am -0.7 -2.8 -0.8 99 0.0 CALM 0 0 0 0 1023.5 - 0.0
23/07:00am -0.9 -3.0 -1.0 99 0.0 CALM 0 0 0 0 1023.4 - 0.0
23/06:41am -1.5 -3.7 -1.6 99 0.0 CALM 0 0 0 0 1023.3 - 0.0
23/06:30am -1.2 -3.4 -1.3 99 0.0 CALM 0 0 0 0 1023.4 - 0.0
23/06:24am -1.2 -3.4 -1.3 99 0.0 CALM 0 0 0 0 1023.3 - 0.0
23/06:14am -0.9 -3.0 -1.0 99 0.0 CALM 0 0 0 0 1023.3 - 0.0
23/06:00am -1.3 -3.5 -1.4 99 0.0 CALM 0 0 0 0 1023.2 1023.7 0.0
23/05:49am -0.8 -2.9 -0.9 99 0.0 CALM 0 0 0 0 1023.2 - 0.0
23/05:33am -0.5 -2.6 -0.6 99 0.0 CALM 0 0 0 0 1023.0 - 0.0
23/05:31am -0.5 -2.6 -0.6 99 0.0 CALM 0 0 0 0 1023.0 - 0.0
23/05:30am -0.5 -2.6 -0.6 99 0.0 CALM 0 0 0 0 1022.9 - 0.0
23/05:10am 0.1 -1.9 0.0 99 0.0 CALM 0 0 0 0 1022.8 - 0.0
23/05:09am 0.0 -2.0 -0.1 99 0.0 CALM 0 0 0 0 1022.8 - 0.0
23/05:01am -0.6 -2.7 -0.9 98 0.1 CALM 0 0 0 0 1022.8 - 0.0
23/05:00am -0.6 -2.7 -0.9 98 0.1 CALM 0 0 0 0 1022.8 - 0.0
23/04:57am -0.4 -2.5 -0.7 98 0.1 CALM 0 0 0 0 1022.8 - 0.0
23/04:47am 1.4 -0.4 1.3 99 0.0 CALM 0 0 0 0 1022.7 - 0.0
23/04:30am 2.7 0.8 2.6 99 0.0 SSE 2 7 1 4 1022.8 - 0.0
23/04:13am 2.4 -0.4 2.3 99 0.0 SSE 6 7 3 4 1022.7 - 0.0
23/04:01am 2.2 -0.6 2.1 99 0.0 SSE 6 9 3 5 1022.7 - 0.0
23/04:00am 2.2 -0.6 2.1 99 0.0 SSE 6 9 3 5 1022.7 - 0.0
23/03:52am 2.4 -0.4 2.3 99 0.0 SSE 6 9 3 5 1022.8 - 0.0
23/03:31am 2.2 -0.8 2.1 99 0.0 SSE 7 9 4 5 1023.0 - 0.0
23/03:30am 2.1 -0.9 2.0 99 0.0 SSE 7 9 4 5 1023.0 - 0.0
23/03:00am 2.3 -0.5 2.2 99 0.0 SSE 6 7 3 4 1023.1 1023.6 0.0
23/02:30am 2.1 -1.3 2.0 99 0.0 SSE 9 11 5 6 1023.2 - 0.0
23/02:03am 2.8 -0.1 2.7 99 0.0 SSE 7 11 4 6 1023.1 - 0.0
23/02:00am 2.7 0.4 2.6 99 0.0 SSE 4 9 2 5 1023.1 - 0.0
23/01:30am 2.4 -0.4 2.3 99 0.0 S 6 7 3 4 1023.1 - 0.0
23/01:00am 2.2 0.5 2.1 99 0.0 CALM 0 0 0 0 1023.1 - 0.0
23/12:30am 2.1 -0.7 2.0 99 0.0 SSE 6 9 3 5 1023.5 - 0.0
23/12:00am 2.3 -0.5 2.2 99 0.0 S 6 7 3 4 1023.8 1024.3 0.0
 
Date/Time
EST
Temp
°C
App
Temp
°C
Dew
Point
Rel
Hum
%
Delta-T
°C
Wind Press
QNH
hPa
Press
MSL
hPa
Rain
since 9 am
mm
Dir
 
Spd
km/h
Gust
km/h
Spd
kts
Gust
kts
22/11:30pm 0.5 -1.4 0.4 99 0.0 CALM 0 0 0 0 1024.1 - 0.0
22/11:04pm 0.9 -1.0 0.8 99 0.0 CALM 0 0 0 0 1024.3 - 0.0
22/11:00pm 0.8 -1.1 0.7 99 0.0 CALM 0 0 0 0 1024.3 - 0.0
22/10:44pm 0.3 -1.7 0.2 99 0.0 CALM 0 0 0 0 1024.4 - 0.0
22/10:40pm 0.0 -2.0 -0.1 99 0.0 CALM 0 0 0 0 1024.4 - 0.0
22/10:34pm 0.5 -1.4 0.4 99 0.0 CALM 0 0 0 0 1024.5 - 0.0
22/10:30pm 1.1 -0.7 1.0 99 0.0 CALM 0 0 0 0 1024.5 - 0.0
22/10:00pm 1.7 0.0 1.6 99 0.0 CALM 0 0 0 0 1024.6 - 0.0
22/09:39pm 2.1 0.4 2.0 99 0.0 CALM 0 0 0 0 1024.5 - 0.0
22/09:37pm 1.7 0.0 1.6 99 0.0 CALM 0 0 0 0 1024.5 - 0.0
22/09:30pm 2.7 1.1 2.6 99 0.0 CALM 0 0 0 0 1024.3 - 0.0
22/09:00pm 2.4 0.8 2.3 99 0.0 CALM 0 0 0 0 1024.0 1024.5 0.0
22/08:43pm 3.1 1.6 3.0 99 0.0 CALM 0 0 0 0 1024.0 - 0.0
22/08:38pm 2.6 1.0 2.5 99 0.0 CALM 0 0 0 0 1023.9 - 0.0
22/08:30pm 2.9 1.4 2.8 99 0.0 CALM 0 0 0 0 1023.9 - 0.0
22/08:12pm 2.5 0.8 1.9 96 0.2 CALM 0 0 0 0 1023.9 - 0.0
22/08:00pm 3.7 2.3 3.4 98 0.1 CALM 0 0 0 0 1023.9 - 0.0
22/07:30pm 3.1 1.5 2.4 95 0.3 CALM 0 0 0 0 1023.8 - 0.0
22/07:00pm 4.6 3.3 4.0 96 0.3 CALM 0 0 0 0 1023.7 - 0.0
22/06:30pm 4.8 3.4 3.5 91 0.5 CALM 0 0 0 0 1023.5 - 0.0
22/06:00pm 6.7 5.4 4.0 83 1.2 CALM 0 0 0 0 1023.3 1023.8 0.0
22/05:30pm 10.0 9.0 5.8 75 2.0 CALM 0 0 0 0 1023.2 - 0.0
22/05:00pm 12.1 11.1 5.5 64 3.1 CALM 0 0 0 0 1023.0 - 0.0
22/04:30pm 13.2 12.2 5.4 59 3.7 CALM 0 0 0 0 1023.0 - 0.0
22/04:00pm 13.5 12.3 4.6 55 4.1 CALM 0 6 0 3 1023.1 - 0.0
22/03:30pm 14.4 13.3 5.0 53 4.4 CALM 0 0 0 0 1023.1 - 0.0
22/03:00pm 13.7 12.2 4.8 55 4.1 ESE 2 7 1 4 1023.1 1023.6 0.0
22/02:30pm 14.6 14.0 7.4 62 3.6 CALM 0 6 0 3 1023.1 - 0.0
22/02:00pm 13.1 12.3 6.5 64 3.2 CALM 0 0 0 0 1023.3 - 0.0
22/01:30pm 13.3 12.4 6.2 62 3.4 CALM 0 4 0 2 1023.7 - 0.0
22/01:00pm 12.9 12.1 6.3 64 3.2 CALM 0 0 0 0 1024.2 - 0.0
22/12:30pm 11.7 10.4 5.8 67 2.8 WSW 2 7 1 4 1024.8 - 0.0
22/12:00pm 11.7 10.5 6.6 71 2.4 W 2 9 1 5 1025.3 1025.8 0.0
22/11:30am 11.3 10.0 5.8 69 2.6 NNW 2 9 1 5 1025.7 - 0.0
22/11:00am 11.1 9.7 5.4 68 2.6 N 2 7 1 4 1025.9 - 0.0
22/10:30am 10.8 9.9 6.0 72 2.3 CALM 0 0 0 0 1026.0 - 0.0
22/10:00am 9.7 8.9 6.6 81 1.5 CALM 0 0 0 0 1025.9 - 0.0
22/09:30am 6.2 5.2 5.8 97 0.2 CALM 0 6 0 3 1025.9 - 0.0
22/09:00am 3.7 2.3 3.6 99 0.0 CALM 0 0 0 0 1025.7 1026.2 0.2
22/08:30am 0.0 -2.0 -0.1 99 0.0 CALM 0 0 0 0 1025.4 - 0.0
22/08:00am -0.8 -2.9 -0.9 99 0.0 CALM 0 0 0 0 1025.3 - 0.0
22/07:30am -2.0 -4.3 -2.1 99 -0.1 CALM 0 2 0 1 1025.0 - 0.0
22/07:00am -2.4 -4.7 -2.5 99 -0.1 CALM 0 0 0 0 1024.8 - 0.0
22/06:30am -2.1 -4.4 -2.2 99 -0.1 CALM 0 0 0 0 1024.6 - 0.0
22/06:00am -2.4 -4.7 -2.5 99 -0.1 CALM 0 0 0 0 1024.4 1024.9 0.0
22/05:30am -2.1 -4.4 -2.2 99 -0.1 CALM 0 0 0 0 1024.2 - 0.0
22/05:00am -2.5 -4.8 -2.6 99 -0.1 CALM 0 0 0 0 1024.1 - 0.0
22/04:30am -1.6 -3.8 -1.7 99 0.0 CALM 0 0 0 0 1024.1 - 0.0
22/04:29am -1.5 -3.7 -1.6 99 0.0 CALM 0 0 0 0 1024.1 - 0.0
22/04:22am -1.9 -4.2 -2.0 99 -0.1 CALM 0 0 0 0 1024.1 - 0.0
22/04:05am -1.4 -3.6 -1.5 99 0.0 CALM 0 0 0 0 1024.1 - 0.0
22/04:04am -1.4 -3.6 -1.5 99 0.0 CALM 0 0 0 0 1024.1 - 0.0
22/04:00am -1.8 -4.0 -1.9 99 0.0 CALM 0 0 0 0 1024.1 - 0.0
22/03:50am -1.7 -3.9 -1.8 99 0.0 CALM 0 0 0 0 1024.1 - 0.0
22/03:45am -2.0 -4.3 -2.1 99 -0.1 CALM 0 0 0 0 1024.2 - 0.0
22/03:30am -1.4 -3.6 -1.5 99 0.0 CALM 0 0 0 0 1024.3 - 0.0
22/03:24am -0.7 -2.8 -0.8 99 0.0 CALM 0 0 0 0 1024.4 - 0.0
22/03:15am -1.5 -3.7 -1.6 99 0.0 CALM 0 6 0 3 1024.4 - 0.0
22/03:00am -1.1 -3.3 -1.2 99 0.0 CALM 0 0 0 0 1024.4 1024.9 0.0
22/02:46am -1.1 -3.3 -1.2 99 0.0 CALM 0 0 0 0 1024.4 - 0.0
22/02:37am -1.1 -3.3 -1.2 99 0.0 CALM 0 0 0 0 1024.3 - 0.0
22/02:30am -1.4 -3.6 -1.5 99 0.0 CALM 0 0 0 0 1024.2 - 0.0
22/02:09am -0.5 -2.6 -0.6 99 0.0 CALM 0 0 0 0 1024.1 - 0.0
22/02:00am 0.4 -1.9 0.3 99 0.0 SE 2 7 1 4 1024.1 - 0.0
22/01:41am -0.1 -2.1 -0.2 99 0.0 CALM 0 0 0 0 1024.1 - 0.0
22/01:30am 0.4 -1.5 0.3 99 0.0 CALM 0 0 0 0 1024.1 - 0.0
22/01:12am -0.1 -2.1 -0.2 99 0.0 CALM 0 0 0 0 1024.2 - 0.0
22/01:00am -0.1 -2.1 -0.2 99 0.0 CALM 0 0 0 0 1024.3 - 0.0
22/12:30am 1.4 -0.4 1.3 99 0.0 CALM 0 0 0 0 1024.4 - 0.0
22/12:24am 1.1 -0.7 1.0 99 0.0 CALM 0 0 0 0 1024.4 - 0.0
22/12:00am 1.4 -0.4 1.3 99 0.0 CALM 0 0 0 0 1024.6 1025.1 0.0
 
Date/Time
EST
Temp
°C
App
Temp
°C
Dew
Point
Rel
Hum
%
Delta-T
°C
Wind Press
QNH
hPa
Press
MSL
hPa
Rain
since 9 am
mm
Dir
 
Spd
km/h
Gust
km/h
Spd
kts
Gust
kts
21/11:53pm 1.0 -0.8 0.9 99 0.0 CALM 0 0 0 0 1024.7 - 0.0
21/11:30pm 1.0 -0.8 0.9 99 0.0 CALM 0 0 0 0 1024.8 - 0.0
21/11:12pm 2.1 0.4 2.0 99 0.0 CALM 0 6 0 3 1024.8 - 0.0
21/11:00pm 2.5 -0.2 2.4 99 0.0 S 6 13 3 7 1024.7 - 0.0
21/10:30pm 1.0 -0.8 0.9 99 0.0 CALM 0 0 0 0 1024.7 - 0.0
21/10:00pm 2.1 0.4 2.0 99 0.0 CALM 0 0 0 0 1024.7 - 0.0
21/09:54pm 2.1 0.4 2.0 99 0.0 CALM 0 0 0 0 1024.8 - 0.0
21/09:34pm 2.7 1.1 2.6 99 0.0 CALM 0 0 0 0 1024.9 - 0.0
21/09:30pm 2.8 1.2 2.7 99 0.0 CALM 0 0 0 0 1024.9 - 0.0
21/09:00pm 3.4 2.0 3.3 99 0.0 CALM 0 0 0 0 1024.9 1025.4 0.0
21/08:30pm 3.4 1.9 3.1 98 0.1 CALM 0 0 0 0 1024.8 - 0.0
21/08:00pm 4.4 3.1 4.3 99 0.0 CALM 0 0 0 0 1024.8 - 0.0
21/07:30pm 4.2 2.9 3.9 98 0.1 CALM 0 0 0 0 1024.7 - 0.0
21/07:00pm 4.9 3.7 4.5 97 0.2 CALM 0 0 0 0 1024.6 - 0.0
21/06:30pm 5.2 3.9 4.3 94 0.4 CALM 0 0 0 0 1024.5 - 0.0
21/06:00pm 5.8 4.5 4.3 90 0.6 CALM 0 0 0 0 1024.2 1024.7 0.0
21/05:30pm 8.0 6.9 5.3 83 1.2 CALM 0 0 0 0 1023.9 - 0.0
21/05:00pm 9.0 7.9 5.2 77 1.7 CALM 0 0 0 0 1023.8 - 0.0
21/04:30pm 9.5 7.1 5.1 74 2.0 ESE 7 11 4 6 1023.7 - 0.0
21/04:00pm 10.0 6.9 5.4 73 2.1 SE 11 17 6 9 1023.8 - 0.0
21/03:30pm 10.2 7.2 6.0 75 2.0 SE 11 17 6 9 1023.7 - 0.0
21/03:00pm 9.9 6.9 5.9 76 1.9 SSE 11 17 6 9 1023.7 1024.2 0.0
21/02:30pm 9.9 8.9 5.7 75 1.9 CALM 0 7 0 4 1023.9 - 0.0

Other Formats:

Comma delimited format used in spreadsheet applications
http://www.bom.gov.au/fwo/IDV60801/IDV60801.94855.axf

JavaScript Object Notation format (JSON) in row-major order
http://www.bom.gov.au/fwo/IDV60801/IDV60801.94855.json